sensor_id;sensor_type;location;lat;lon;timestamp;P1;durP1;ratioP1;P2;durP2;ratioP2
23250;SDS011;11794;49.730;10.088;2023-04-29T00:01:50;0.70;;;0.17;;
23250;SDS011;11794;49.730;10.088;2023-04-29T00:04:15;1.50;;;0.20;;
23250;SDS011;11794;49.730;10.088;2023-04-29T00:06:41;0.98;;;0.20;;
23250;SDS011;11794;49.730;10.088;2023-04-29T00:09:07;1.20;;;0.30;;
23250;SDS011;11794;49.730;10.088;2023-04-29T00:11:32;0.50;;;0.17;;
23250;SDS011;11794;49.730;10.088;2023-04-29T00:13:58;1.07;;;0.10;;
23250;SDS011;11794;49.730;10.088;2023-04-29T00:16:23;1.15;;;0.17;;
23250;SDS011;11794;49.730;10.088;2023-04-29T00:18:49;0.85;;;0.20;;
23250;SDS011;11794;49.730;10.088;2023-04-29T00:21:15;0.30;;;0.10;;
23250;SDS011;11794;49.730;10.088;2023-04-29T00:23:40;0.87;;;0.20;;
23250;SDS011;11794;49.730;10.088;2023-04-29T00:26:06;1.10;;;0.38;;
23250;SDS011;11794;49.730;10.088;2023-04-29T00:28:31;0.67;;;0.20;;
23250;SDS011;11794;49.730;10.088;2023-04-29T00:30:57;0.30;;;0.10;;
23250;SDS011;11794;49.730;10.088;2023-04-29T00:33:23;0.47;;;0.20;;
23250;SDS011;11794;49.730;10.088;2023-04-29T00:35:48;0.70;;;0.30;;
23250;SDS011;11794;49.730;10.088;2023-04-29T00:38:14;0.60;;;0.10;;
23250;SDS011;11794;49.730;10.088;2023-04-29T00:40:40;0.57;;;0.20;;
23250;SDS011;11794;49.730;10.088;2023-04-29T00:43:07;0.73;;;0.20;;
23250;SDS011;11794;49.730;10.088;2023-04-29T00:45:33;0.27;;;0.10;;
23250;SDS011;11794;49.730;10.088;2023-04-29T00:47:58;0.60;;;0.20;;
23250;SDS011;11794;49.730;10.088;2023-04-29T00:50:24;0.82;;;0.30;;
23250;SDS011;11794;49.730;10.088;2023-04-29T00:52:49;0.27;;;0.10;;
23250;SDS011;11794;49.730;10.088;2023-04-29T00:55:16;1.17;;;0.20;;
23250;SDS011;11794;49.730;10.088;2023-04-29T00:57:42;1.00;;;0.20;;
23250;SDS011;11794;49.730;10.088;2023-04-29T01:00:08;1.33;;;0.30;;
23250;SDS011;11794;49.730;10.088;2023-04-29T01:02:34;1.50;;;0.45;;
23250;SDS011;11794;49.730;10.088;2023-04-29T01:04:59;0.63;;;0.17;;
23250;SDS011;11794;49.730;10.088;2023-04-29T01:10:09;0.30;;;0.10;;
23250;SDS011;11794;49.730;10.088;2023-04-29T01:18:26;1.35;;;0.55;;
23250;SDS011;11794;49.730;10.088;2023-04-29T01:20:56;0.70;;;0.20;;
23250;SDS011;11794;49.730;10.088;2023-04-29T01:23:26;0.90;;;0.25;;
23250;SDS011;11794;49.730;10.088;2023-04-29T01:25:52;0.93;;;0.40;;
23250;SDS011;11794;49.730;10.088;2023-04-29T01:31:31;0.52;;;0.20;;
23250;SDS011;11794;49.730;10.088;2023-04-29T01:34:04;2.00;;;0.85;;
23250;SDS011;11794;49.730;10.088;2023-04-29T01:36:46;1.83;;;0.63;;
23250;SDS011;11794;49.730;10.088;2023-04-29T01:42:28;2.97;;;0.47;;
23250;SDS011;11794;49.730;10.088;2023-04-29T01:45:04;1.90;;;0.22;;
23250;SDS011;11794;49.730;10.088;2023-04-29T01:47:32;0.80;;;0.20;;
23250;SDS011;11794;49.730;10.088;2023-04-29T01:49:58;0.73;;;0.22;;
23250;SDS011;11794;49.730;10.088;2023-04-29T01:52:23;0.40;;;0.20;;
23250;SDS011;11794;49.730;10.088;2023-04-29T01:54:49;0.85;;;0.20;;
23250;SDS011;11794;49.730;10.088;2023-04-29T01:57:14;1.00;;;0.20;;
23250;SDS011;11794;49.730;10.088;2023-04-29T01:59:40;1.05;;;0.38;;
23250;SDS011;11794;49.730;10.088;2023-04-29T02:02:06;2.10;;;0.40;;
23250;SDS011;11794;49.730;10.088;2023-04-29T02:04:32;1.05;;;0.25;;
23250;SDS011;11794;49.730;10.088;2023-04-29T02:06:58;1.83;;;0.55;;
23250;SDS011;11794;49.730;10.088;2023-04-29T02:09:24;0.90;;;0.10;;
23250;SDS011;11794;49.730;10.088;2023-04-29T02:11:49;1.88;;;0.30;;
23250;SDS011;11794;49.730;10.088;2023-04-29T02:14:15;0.60;;;0.10;;
23250;SDS011;11794;49.730;10.088;2023-04-29T02:16:43;0.93;;;0.23;;
23250;SDS011;11794;49.730;10.088;2023-04-29T02:19:09;1.80;;;0.40;;
23250;SDS011;11794;49.730;10.088;2023-04-29T02:21:35;1.67;;;0.38;;
23250;SDS011;11794;49.730;10.088;2023-04-29T02:24:00;1.93;;;0.20;;
23250;SDS011;11794;49.730;10.088;2023-04-29T02:26:26;1.63;;;0.38;;
23250;SDS011;11794;49.730;10.088;2023-04-29T02:28:52;0.47;;;0.10;;
23250;SDS011;11794;49.730;10.088;2023-04-29T02:31:17;0.67;;;0.20;;
23250;SDS011;11794;49.730;10.088;2023-04-29T02:33:43;1.33;;;0.30;;
23250;SDS011;11794;49.730;10.088;2023-04-29T02:36:08;0.77;;;0.30;;
23250;SDS011;11794;49.730;10.088;2023-04-29T02:38:34;1.03;;;0.30;;
23250;SDS011;11794;49.730;10.088;2023-04-29T02:40:59;1.03;;;0.10;;
23250;SDS011;11794;49.730;10.088;2023-04-29T02:43:25;1.70;;;0.50;;
23250;SDS011;11794;49.730;10.088;2023-04-29T02:45:50;1.73;;;0.60;;
23250;SDS011;11794;49.730;10.088;2023-04-29T02:48:16;2.37;;;0.33;;
23250;SDS011;11794;49.730;10.088;2023-04-29T02:50:42;0.95;;;0.30;;
23250;SDS011;11794;49.730;10.088;2023-04-29T02:53:07;1.70;;;0.57;;
23250;SDS011;11794;49.730;10.088;2023-04-29T02:55:33;0.50;;;0.10;;
23250;SDS011;11794;49.730;10.088;2023-04-29T02:57:58;0.60;;;0.30;;
23250;SDS011;11794;49.730;10.088;2023-04-29T03:00:24;0.53;;;0.10;;
23250;SDS011;11794;49.730;10.088;2023-04-29T03:02:49;0.83;;;0.30;;
23250;SDS011;11794;49.730;10.088;2023-04-29T03:05:15;1.15;;;0.22;;
23250;SDS011;11794;49.730;10.088;2023-04-29T03:07:40;0.73;;;0.10;;
23250;SDS011;11794;49.730;10.088;2023-04-29T03:10:06;0.80;;;0.33;;
23250;SDS011;11794;49.730;10.088;2023-04-29T03:12:33;1.75;;;0.55;;
23250;SDS011;11794;49.730;10.088;2023-04-29T03:14:59;0.80;;;0.38;;
23250;SDS011;11794;49.730;10.088;2023-04-29T03:17:24;1.40;;;0.30;;
23250;SDS011;11794;49.730;10.088;2023-04-29T03:19:50;0.30;;;0.13;;
23250;SDS011;11794;49.730;10.088;2023-04-29T03:22:18;0.52;;;0.20;;
23250;SDS011;11794;49.730;10.088;2023-04-29T03:24:43;2.97;;;0.98;;
23250;SDS011;11794;49.730;10.088;2023-04-29T03:27:09;1.27;;;0.30;;
23250;SDS011;11794;49.730;10.088;2023-04-29T03:29:35;1.30;;;0.45;;
23250;SDS011;11794;49.730;10.088;2023-04-29T03:32:00;0.40;;;0.10;;
23250;SDS011;11794;49.730;10.088;2023-04-29T03:34:26;0.20;;;0.10;;
23250;SDS011;11794;49.730;10.088;2023-04-29T03:36:52;0.50;;;0.20;;
23250;SDS011;11794;49.730;10.088;2023-04-29T03:39:18;1.52;;;0.20;;
23250;SDS011;11794;49.730;10.088;2023-04-29T03:41:44;1.17;;;0.40;;
23250;SDS011;11794;49.730;10.088;2023-04-29T03:44:11;0.87;;;0.20;;
23250;SDS011;11794;49.730;10.088;2023-04-29T03:46:36;1.27;;;0.30;;
23250;SDS011;11794;49.730;10.088;2023-04-29T03:49:02;1.30;;;0.30;;
23250;SDS011;11794;49.730;10.088;2023-04-29T03:51:27;0.40;;;0.17;;
23250;SDS011;11794;49.730;10.088;2023-04-29T03:53:53;2.07;;;0.30;;
23250;SDS011;11794;49.730;10.088;2023-04-29T03:56:23;0.82;;;0.30;;
23250;SDS011;11794;49.730;10.088;2023-04-29T03:58:51;0.90;;;0.10;;
23250;SDS011;11794;49.730;10.088;2023-04-29T04:01:17;1.80;;;0.37;;
23250;SDS011;11794;49.730;10.088;2023-04-29T04:03:43;0.77;;;0.30;;
23250;SDS011;11794;49.730;10.088;2023-04-29T04:06:09;2.47;;;0.30;;
23250;SDS011;11794;49.730;10.088;2023-04-29T04:08:34;2.53;;;0.70;;
23250;SDS011;11794;49.730;10.088;2023-04-29T04:11:00;1.25;;;0.50;;
23250;SDS011;11794;49.730;10.088;2023-04-29T04:13:28;1.60;;;0.40;;
23250;SDS011;11794;49.730;10.088;2023-04-29T04:15:54;2.17;;;0.30;;
23250;SDS011;11794;49.730;10.088;2023-04-29T04:18:19;4.67;;;0.60;;
23250;SDS011;11794;49.730;10.088;2023-04-29T04:20:45;1.50;;;0.43;;
23250;SDS011;11794;49.730;10.088;2023-04-29T04:23:11;0.77;;;0.30;;
23250;SDS011;11794;49.730;10.088;2023-04-29T04:25:37;1.97;;;0.57;;
23250;SDS011;11794;49.730;10.088;2023-04-29T04:28:02;0.93;;;0.17;;
23250;SDS011;11794;49.730;10.088;2023-04-29T04:30:28;0.90;;;0.33;;
23250;SDS011;11794;49.730;10.088;2023-04-29T04:32:53;2.33;;;0.60;;
23250;SDS011;11794;49.730;10.088;2023-04-29T04:35:19;2.08;;;0.30;;
23250;SDS011;11794;49.730;10.088;2023-04-29T04:37:44;0.70;;;0.30;;
23250;SDS011;11794;49.730;10.088;2023-04-29T04:40:10;1.33;;;0.30;;
23250;SDS011;11794;49.730;10.088;2023-04-29T04:42:37;1.10;;;0.30;;
23250;SDS011;11794;49.730;10.088;2023-04-29T04:45:03;0.88;;;0.30;;
23250;SDS011;11794;49.730;10.088;2023-04-29T04:47:29;1.17;;;0.28;;
23250;SDS011;11794;49.730;10.088;2023-04-29T04:49:55;1.57;;;0.40;;
23250;SDS011;11794;49.730;10.088;2023-04-29T04:52:20;1.50;;;0.45;;
23250;SDS011;11794;49.730;10.088;2023-04-29T04:54:46;0.47;;;0.10;;
23250;SDS011;11794;49.730;10.088;2023-04-29T04:57:12;0.68;;;0.22;;
23250;SDS011;11794;49.730;10.088;2023-04-29T04:59:37;1.53;;;0.50;;
23250;SDS011;11794;49.730;10.088;2023-04-29T05:02:03;1.50;;;0.47;;
23250;SDS011;11794;49.730;10.088;2023-04-29T05:04:29;1.30;;;0.57;;
23250;SDS011;11794;49.730;10.088;2023-04-29T05:06:54;0.77;;;0.20;;
23250;SDS011;11794;49.730;10.088;2023-04-29T05:09:20;1.20;;;0.50;;
23250;SDS011;11794;49.730;10.088;2023-04-29T05:11:45;1.53;;;0.53;;
23250;SDS011;11794;49.730;10.088;2023-04-29T05:14:11;1.33;;;0.50;;
23250;SDS011;11794;49.730;10.088;2023-04-29T05:16:36;0.88;;;0.45;;
23250;SDS011;11794;49.730;10.088;2023-04-29T05:19:02;3.07;;;0.50;;
23250;SDS011;11794;49.730;10.088;2023-04-29T05:21:27;1.15;;;0.30;;
23250;SDS011;11794;49.730;10.088;2023-04-29T05:23:53;1.07;;;0.30;;
23250;SDS011;11794;49.730;10.088;2023-04-29T05:26:18;0.67;;;0.20;;
23250;SDS011;11794;49.730;10.088;2023-04-29T05:28:45;2.45;;;0.40;;
23250;SDS011;11794;49.730;10.088;2023-04-29T05:31:10;1.52;;;0.50;;
23250;SDS011;11794;49.730;10.088;2023-04-29T05:33:36;1.60;;;0.63;;
23250;SDS011;11794;49.730;10.088;2023-04-29T05:36:01;1.42;;;0.20;;
23250;SDS011;11794;49.730;10.088;2023-04-29T05:38:27;1.27;;;0.30;;
23250;SDS011;11794;49.730;10.088;2023-04-29T05:40:54;2.63;;;0.73;;
23250;SDS011;11794;49.730;10.088;2023-04-29T05:43:20;2.95;;;1.17;;
23250;SDS011;11794;49.730;10.088;2023-04-29T05:45:46;1.25;;;0.40;;
23250;SDS011;11794;49.730;10.088;2023-04-29T05:48:11;1.93;;;0.60;;
23250;SDS011;11794;49.730;10.088;2023-04-29T05:50:37;1.63;;;0.73;;
23250;SDS011;11794;49.730;10.088;2023-04-29T05:53:02;1.10;;;0.37;;
23250;SDS011;11794;49.730;10.088;2023-04-29T05:55:28;1.55;;;0.30;;
23250;SDS011;11794;49.730;10.088;2023-04-29T05:57:54;2.28;;;0.32;;
23250;SDS011;11794;49.730;10.088;2023-04-29T06:00:20;2.03;;;0.52;;
23250;SDS011;11794;49.730;10.088;2023-04-29T06:02:46;1.77;;;0.73;;
23250;SDS011;11794;49.730;10.088;2023-04-29T06:05:12;1.45;;;0.40;;
23250;SDS011;11794;49.730;10.088;2023-04-29T06:07:39;3.45;;;0.57;;
23250;SDS011;11794;49.730;10.088;2023-04-29T06:10:05;2.93;;;1.07;;
23250;SDS011;11794;49.730;10.088;2023-04-29T06:12:31;1.87;;;0.53;;
23250;SDS011;11794;49.730;10.088;2023-04-29T06:14:57;0.43;;;0.10;;
23250;SDS011;11794;49.730;10.088;2023-04-29T06:17:22;1.57;;;0.50;;
23250;SDS011;11794;49.730;10.088;2023-04-29T06:19:48;1.40;;;0.40;;
23250;SDS011;11794;49.730;10.088;2023-04-29T06:22:13;1.63;;;0.65;;
23250;SDS011;11794;49.730;10.088;2023-04-29T06:24:39;1.97;;;0.60;;
23250;SDS011;11794;49.730;10.088;2023-04-29T06:27:04;1.98;;;0.45;;
23250;SDS011;11794;49.730;10.088;2023-04-29T06:29:30;1.80;;;0.37;;
23250;SDS011;11794;49.730;10.088;2023-04-29T06:31:56;1.10;;;0.38;;
23250;SDS011;11794;49.730;10.088;2023-04-29T06:34:21;2.37;;;0.73;;
23250;SDS011;11794;49.730;10.088;2023-04-29T06:36:46;1.20;;;0.50;;
23250;SDS011;11794;49.730;10.088;2023-04-29T06:39:12;1.30;;;0.50;;
23250;SDS011;11794;49.730;10.088;2023-04-29T06:41:37;1.02;;;0.20;;
23250;SDS011;11794;49.730;10.088;2023-04-29T06:44:04;1.73;;;0.50;;
23250;SDS011;11794;49.730;10.088;2023-04-29T06:46:30;2.00;;;0.47;;
23250;SDS011;11794;49.730;10.088;2023-04-29T06:48:55;2.60;;;0.90;;
23250;SDS011;11794;49.730;10.088;2023-04-29T06:51:21;3.13;;;1.02;;
23250;SDS011;11794;49.730;10.088;2023-04-29T06:53:46;2.20;;;0.63;;
23250;SDS011;11794;49.730;10.088;2023-04-29T06:56:12;3.13;;;1.10;;
23250;SDS011;11794;49.730;10.088;2023-04-29T06:58:37;2.80;;;0.82;;
23250;SDS011;11794;49.730;10.088;2023-04-29T07:01:03;1.60;;;0.47;;
23250;SDS011;11794;49.730;10.088;2023-04-29T07:03:31;2.00;;;0.55;;
23250;SDS011;11794;49.730;10.088;2023-04-29T07:05:56;2.45;;;0.55;;
23250;SDS011;11794;49.730;10.088;2023-04-29T07:08:22;4.43;;;1.03;;
23250;SDS011;11794;49.730;10.088;2023-04-29T07:10:56;2.35;;;0.68;;
23250;SDS011;11794;49.730;10.088;2023-04-29T07:13:23;2.90;;;1.23;;
23250;SDS011;11794;49.730;10.088;2023-04-29T07:15:50;2.43;;;1.03;;
23250;SDS011;11794;49.730;10.088;2023-04-29T07:18:15;2.33;;;1.00;;
23250;SDS011;11794;49.730;10.088;2023-04-29T07:20:41;3.22;;;0.93;;
23250;SDS011;11794;49.730;10.088;2023-04-29T07:23:08;1.88;;;0.77;;
23250;SDS011;11794;49.730;10.088;2023-04-29T07:25:34;2.07;;;0.53;;
23250;SDS011;11794;49.730;10.088;2023-04-29T07:27:59;3.47;;;0.80;;
23250;SDS011;11794;49.730;10.088;2023-04-29T07:30:25;3.23;;;1.03;;
23250;SDS011;11794;49.730;10.088;2023-04-29T07:32:50;3.00;;;1.20;;
23250;SDS011;11794;49.730;10.088;2023-04-29T07:35:16;1.97;;;0.47;;
23250;SDS011;11794;49.730;10.088;2023-04-29T07:37:42;14.90;;;1.20;;
23250;SDS011;11794;49.730;10.088;2023-04-29T07:40:08;3.20;;;0.97;;
23250;SDS011;11794;49.730;10.088;2023-04-29T07:42:34;3.28;;;1.08;;
23250;SDS011;11794;49.730;10.088;2023-04-29T07:44:59;5.40;;;1.23;;
23250;SDS011;11794;49.730;10.088;2023-04-29T07:47:25;3.50;;;1.00;;
23250;SDS011;11794;49.730;10.088;2023-04-29T07:49:51;3.42;;;1.15;;
23250;SDS011;11794;49.730;10.088;2023-04-29T07:52:16;4.43;;;1.33;;
23250;SDS011;11794;49.730;10.088;2023-04-29T07:54:42;2.47;;;0.50;;
23250;SDS011;11794;49.730;10.088;2023-04-29T07:57:08;2.47;;;0.80;;
23250;SDS011;11794;49.730;10.088;2023-04-29T07:59:33;2.20;;;0.65;;
23250;SDS011;11794;49.730;10.088;2023-04-29T08:01:59;4.83;;;1.33;;
23250;SDS011;11794;49.730;10.088;2023-04-29T08:04:24;3.15;;;1.00;;
23250;SDS011;11794;49.730;10.088;2023-04-29T08:06:50;5.83;;;1.23;;
23250;SDS011;11794;49.730;10.088;2023-04-29T08:09:16;25.00;;;1.23;;
23250;SDS011;11794;49.730;10.088;2023-04-29T08:11:41;3.22;;;1.10;;
23250;SDS011;11794;49.730;10.088;2023-04-29T08:14:07;2.42;;;0.80;;
23250;SDS011;11794;49.730;10.088;2023-04-29T08:16:33;3.23;;;0.90;;
23250;SDS011;11794;49.730;10.088;2023-04-29T08:18:59;4.15;;;0.98;;
23250;SDS011;11794;49.730;10.088;2023-04-29T08:21:24;4.03;;;1.37;;
23250;SDS011;11794;49.730;10.088;2023-04-29T08:23:51;2.53;;;0.87;;
23250;SDS011;11794;49.730;10.088;2023-04-29T08:26:17;3.88;;;1.25;;
23250;SDS011;11794;49.730;10.088;2023-04-29T08:28:43;3.88;;;0.90;;
23250;SDS011;11794;49.730;10.088;2023-04-29T08:31:15;2.00;;;0.70;;
23250;SDS011;11794;49.730;10.088;2023-04-29T08:33:44;3.47;;;1.45;;
23250;SDS011;11794;49.730;10.088;2023-04-29T08:36:10;2.88;;;0.77;;
23250;SDS011;11794;49.730;10.088;2023-04-29T08:38:36;3.33;;;0.67;;
23250;SDS011;11794;49.730;10.088;2023-04-29T08:41:01;2.85;;;0.80;;
23250;SDS011;11794;49.730;10.088;2023-04-29T08:43:27;1.53;;;0.47;;
23250;SDS011;11794;49.730;10.088;2023-04-29T08:45:53;2.47;;;0.52;;
23250;SDS011;11794;49.730;10.088;2023-04-29T08:48:21;2.95;;;0.55;;
23250;SDS011;11794;49.730;10.088;2023-04-29T08:50:47;1.30;;;0.40;;
23250;SDS011;11794;49.730;10.088;2023-04-29T08:53:13;2.35;;;0.75;;
23250;SDS011;11794;49.730;10.088;2023-04-29T08:55:42;2.63;;;1.00;;
23250;SDS011;11794;49.730;10.088;2023-04-29T08:58:09;3.88;;;0.60;;
23250;SDS011;11794;49.730;10.088;2023-04-29T09:00:36;2.13;;;0.60;;
23250;SDS011;11794;49.730;10.088;2023-04-29T09:03:03;2.13;;;1.05;;
23250;SDS011;11794;49.730;10.088;2023-04-29T09:05:35;2.30;;;0.68;;
23250;SDS011;11794;49.730;10.088;2023-04-29T09:08:02;2.00;;;0.47;;
23250;SDS011;11794;49.730;10.088;2023-04-29T09:10:28;1.90;;;0.38;;
23250;SDS011;11794;49.730;10.088;2023-04-29T09:12:57;2.83;;;0.77;;
23250;SDS011;11794;49.730;10.088;2023-04-29T09:15:23;2.35;;;0.43;;
23250;SDS011;11794;49.730;10.088;2023-04-29T09:17:48;1.17;;;0.33;;
23250;SDS011;11794;49.730;10.088;2023-04-29T09:22:55;1.83;;;0.50;;
23250;SDS011;11794;49.730;10.088;2023-04-29T09:25:23;1.93;;;0.43;;
23250;SDS011;11794;49.730;10.088;2023-04-29T09:27:48;1.83;;;0.47;;
23250;SDS011;11794;49.730;10.088;2023-04-29T09:30:15;1.88;;;0.43;;
23250;SDS011;11794;49.730;10.088;2023-04-29T09:32:41;1.90;;;0.70;;
23250;SDS011;11794;49.730;10.088;2023-04-29T09:35:23;2.45;;;0.47;;
23250;SDS011;11794;49.730;10.088;2023-04-29T09:37:51;0.88;;;0.30;;
23250;SDS011;11794;49.730;10.088;2023-04-29T09:40:27;4.25;;;0.60;;
23250;SDS011;11794;49.730;10.088;2023-04-29T09:42:56;1.88;;;0.57;;
23250;SDS011;11794;49.730;10.088;2023-04-29T09:45:39;4.72;;;0.50;;
23250;SDS011;11794;49.730;10.088;2023-04-29T09:48:09;1.95;;;0.75;;
23250;SDS011;11794;49.730;10.088;2023-04-29T09:50:35;2.70;;;0.55;;
23250;SDS011;11794;49.730;10.088;2023-04-29T09:53:02;1.80;;;0.40;;
23250;SDS011;11794;49.730;10.088;2023-04-29T09:55:29;2.40;;;0.60;;
23250;SDS011;11794;49.730;10.088;2023-04-29T09:57:55;2.88;;;0.77;;
23250;SDS011;11794;49.730;10.088;2023-04-29T10:00:21;3.63;;;1.17;;
23250;SDS011;11794;49.730;10.088;2023-04-29T10:02:47;3.30;;;0.80;;
23250;SDS011;11794;49.730;10.088;2023-04-29T10:05:14;1.95;;;0.50;;
23250;SDS011;11794;49.730;10.088;2023-04-29T10:07:40;2.50;;;0.52;;
23250;SDS011;11794;49.730;10.088;2023-04-29T10:10:06;1.92;;;0.52;;
23250;SDS011;11794;49.730;10.088;2023-04-29T10:12:34;2.10;;;0.47;;
23250;SDS011;11794;49.730;10.088;2023-04-29T10:15:19;1.30;;;0.40;;
23250;SDS011;11794;49.730;10.088;2023-04-29T10:17:59;2.47;;;0.80;;
23250;SDS011;11794;49.730;10.088;2023-04-29T10:20:37;2.43;;;0.70;;
23250;SDS011;11794;49.730;10.088;2023-04-29T10:23:09;1.37;;;0.40;;
23250;SDS011;11794;49.730;10.088;2023-04-29T10:25:36;1.52;;;0.50;;
23250;SDS011;11794;49.730;10.088;2023-04-29T10:28:02;2.67;;;0.77;;
23250;SDS011;11794;49.730;10.088;2023-04-29T10:30:28;1.60;;;0.50;;
23250;SDS011;11794;49.730;10.088;2023-04-29T10:32:56;2.28;;;0.47;;
23250;SDS011;11794;49.730;10.088;2023-04-29T10:35:25;2.05;;;0.88;;
23250;SDS011;11794;49.730;10.088;2023-04-29T10:37:51;2.63;;;0.53;;
23250;SDS011;11794;49.730;10.088;2023-04-29T10:40:21;4.10;;;0.80;;
23250;SDS011;11794;49.730;10.088;2023-04-29T10:42:52;3.00;;;0.68;;
23250;SDS011;11794;49.730;10.088;2023-04-29T10:45:19;1.88;;;0.55;;
23250;SDS011;11794;49.730;10.088;2023-04-29T10:50:38;1.52;;;0.55;;
23250;SDS011;11794;49.730;10.088;2023-04-29T10:53:10;1.67;;;0.57;;
23250;SDS011;11794;49.730;10.088;2023-04-29T10:55:37;1.00;;;0.30;;
23250;SDS011;11794;49.730;10.088;2023-04-29T10:58:03;1.33;;;0.40;;
23250;SDS011;11794;49.730;10.088;2023-04-29T11:00:30;3.10;;;0.93;;
23250;SDS011;11794;49.730;10.088;2023-04-29T11:02:58;2.45;;;0.55;;
23250;SDS011;11794;49.730;10.088;2023-04-29T11:05:29;1.52;;;0.43;;
23250;SDS011;11794;49.730;10.088;2023-04-29T11:08:10;1.90;;;0.50;;
23250;SDS011;11794;49.730;10.088;2023-04-29T11:10:47;1.25;;;0.20;;
23250;SDS011;11794;49.730;10.088;2023-04-29T11:15:47;1.02;;;0.20;;
23250;SDS011;11794;49.730;10.088;2023-04-29T11:18:14;1.05;;;0.30;;
23250;SDS011;11794;49.730;10.088;2023-04-29T11:23:38;1.48;;;0.43;;
23250;SDS011;11794;49.730;10.088;2023-04-29T11:26:09;2.47;;;0.80;;
23250;SDS011;11794;49.730;10.088;2023-04-29T11:28:34;5.05;;;1.58;;
23250;SDS011;11794;49.730;10.088;2023-04-29T11:31:00;1.93;;;0.93;;
23250;SDS011;11794;49.730;10.088;2023-04-29T11:33:30;1.83;;;0.40;;
23250;SDS011;11794;49.730;10.088;2023-04-29T11:35:56;0.95;;;0.30;;
23250;SDS011;11794;49.730;10.088;2023-04-29T11:38:25;2.90;;;0.52;;
23250;SDS011;11794;49.730;10.088;2023-04-29T11:40:53;1.60;;;0.40;;
23250;SDS011;11794;49.730;10.088;2023-04-29T11:43:19;2.43;;;0.90;;
23250;SDS011;11794;49.730;10.088;2023-04-29T11:45:46;2.33;;;0.30;;
23250;SDS011;11794;49.730;10.088;2023-04-29T11:48:18;1.90;;;0.40;;
23250;SDS011;11794;49.730;10.088;2023-04-29T11:50:45;2.97;;;0.40;;
23250;SDS011;11794;49.730;10.088;2023-04-29T11:53:12;1.83;;;0.50;;
23250;SDS011;11794;49.730;10.088;2023-04-29T11:55:39;1.77;;;0.30;;
23250;SDS011;11794;49.730;10.088;2023-04-29T11:58:07;1.23;;;0.27;;
23250;SDS011;11794;49.730;10.088;2023-04-29T12:00:32;1.40;;;0.40;;
23250;SDS011;11794;49.730;10.088;2023-04-29T12:02:58;1.45;;;0.45;;
23250;SDS011;11794;49.730;10.088;2023-04-29T12:05:24;4.00;;;0.70;;
23250;SDS011;11794;49.730;10.088;2023-04-29T12:07:50;2.83;;;0.95;;
23250;SDS011;11794;49.730;10.088;2023-04-29T12:10:16;2.73;;;0.60;;
23250;SDS011;11794;49.730;10.088;2023-04-29T12:12:41;2.65;;;0.65;;
23250;SDS011;11794;49.730;10.088;2023-04-29T12:15:08;2.15;;;0.40;;
23250;SDS011;11794;49.730;10.088;2023-04-29T12:17:34;1.65;;;0.30;;
23250;SDS011;11794;49.730;10.088;2023-04-29T12:20:00;1.03;;;0.33;;
23250;SDS011;11794;49.730;10.088;2023-04-29T12:22:32;0.85;;;0.13;;
23250;SDS011;11794;49.730;10.088;2023-04-29T12:24:58;0.77;;;0.20;;
23250;SDS011;11794;49.730;10.088;2023-04-29T12:27:23;1.42;;;0.30;;
23250;SDS011;11794;49.730;10.088;2023-04-29T12:29:50;1.58;;;0.32;;
23250;SDS011;11794;49.730;10.088;2023-04-29T12:32:16;1.93;;;0.40;;
23250;SDS011;11794;49.730;10.088;2023-04-29T12:34:45;1.23;;;0.20;;
23250;SDS011;11794;49.730;10.088;2023-04-29T12:37:11;3.42;;;0.50;;
23250;SDS011;11794;49.730;10.088;2023-04-29T12:39:37;1.10;;;0.22;;
23250;SDS011;11794;49.730;10.088;2023-04-29T12:42:03;1.80;;;0.30;;
23250;SDS011;11794;49.730;10.088;2023-04-29T12:44:35;0.60;;;0.20;;
23250;SDS011;11794;49.730;10.088;2023-04-29T12:47:10;1.23;;;0.38;;
23250;SDS011;11794;49.730;10.088;2023-04-29T12:49:37;0.70;;;0.10;;
23250;SDS011;11794;49.730;10.088;2023-04-29T12:52:06;1.67;;;0.30;;
23250;SDS011;11794;49.730;10.088;2023-04-29T12:54:34;2.45;;;0.40;;
23250;SDS011;11794;49.730;10.088;2023-04-29T12:57:00;2.58;;;0.85;;
23250;SDS011;11794;49.730;10.088;2023-04-29T12:59:26;1.45;;;0.40;;
23250;SDS011;11794;49.730;10.088;2023-04-29T13:01:52;1.58;;;0.40;;
23250;SDS011;11794;49.730;10.088;2023-04-29T13:04:18;0.90;;;0.20;;
23250;SDS011;11794;49.730;10.088;2023-04-29T13:06:43;1.37;;;0.40;;
23250;SDS011;11794;49.730;10.088;2023-04-29T13:09:09;1.17;;;0.38;;
23250;SDS011;11794;49.730;10.088;2023-04-29T13:11:36;0.50;;;0.15;;
23250;SDS011;11794;49.730;10.088;2023-04-29T13:14:02;0.85;;;0.20;;
23250;SDS011;11794;49.730;10.088;2023-04-29T13:16:28;0.60;;;0.10;;
23250;SDS011;11794;49.730;10.088;2023-04-29T13:18:53;1.20;;;0.30;;
23250;SDS011;11794;49.730;10.088;2023-04-29T13:21:19;1.80;;;0.40;;
23250;SDS011;11794;49.730;10.088;2023-04-29T13:23:45;0.82;;;0.25;;
23250;SDS011;11794;49.730;10.088;2023-04-29T13:26:12;2.33;;;0.30;;
23250;SDS011;11794;49.730;10.088;2023-04-29T13:28:37;1.20;;;0.27;;
23250;SDS011;11794;49.730;10.088;2023-04-29T13:31:03;1.42;;;0.40;;
23250;SDS011;11794;49.730;10.088;2023-04-29T13:33:28;0.83;;;0.20;;
23250;SDS011;11794;49.730;10.088;2023-04-29T13:35:54;0.93;;;0.20;;
23250;SDS011;11794;49.730;10.088;2023-04-29T13:38:19;1.00;;;0.20;;
23250;SDS011;11794;49.730;10.088;2023-04-29T13:40:45;0.90;;;0.30;;
23250;SDS011;11794;49.730;10.088;2023-04-29T13:43:11;1.13;;;0.50;;
23250;SDS011;11794;49.730;10.088;2023-04-29T13:45:36;3.30;;;0.47;;
23250;SDS011;11794;49.730;10.088;2023-04-29T13:48:02;0.87;;;0.23;;
23250;SDS011;11794;49.730;10.088;2023-04-29T13:50:27;0.63;;;0.20;;
23250;SDS011;11794;49.730;10.088;2023-04-29T13:52:53;0.40;;;0.10;;
23250;SDS011;11794;49.730;10.088;2023-04-29T13:55:20;0.40;;;0.10;;
23250;SDS011;11794;49.730;10.088;2023-04-29T13:57:46;0.50;;;0.10;;
23250;SDS011;11794;49.730;10.088;2023-04-29T14:00:11;1.20;;;0.40;;
23250;SDS011;11794;49.730;10.088;2023-04-29T14:02:38;1.42;;;0.40;;
23250;SDS011;11794;49.730;10.088;2023-04-29T14:05:04;2.73;;;0.43;;
23250;SDS011;11794;49.730;10.088;2023-04-29T14:07:30;1.08;;;0.30;;
23250;SDS011;11794;49.730;10.088;2023-04-29T14:09:55;1.45;;;0.55;;
23250;SDS011;11794;49.730;10.088;2023-04-29T14:12:21;1.00;;;0.30;;
23250;SDS011;11794;49.730;10.088;2023-04-29T14:14:46;1.17;;;0.30;;
23250;SDS011;11794;49.730;10.088;2023-04-29T14:17:12;2.30;;;0.50;;
23250;SDS011;11794;49.730;10.088;2023-04-29T14:19:37;1.33;;;0.40;;
23250;SDS011;11794;49.730;10.088;2023-04-29T14:22:03;1.45;;;0.38;;
23250;SDS011;11794;49.730;10.088;2023-04-29T14:24:28;1.50;;;0.50;;
23250;SDS011;11794;49.730;10.088;2023-04-29T14:26:54;0.90;;;0.28;;
23250;SDS011;11794;49.730;10.088;2023-04-29T14:29:21;0.77;;;0.30;;
23250;SDS011;11794;49.730;10.088;2023-04-29T14:31:47;1.67;;;0.50;;
23250;SDS011;11794;49.730;10.088;2023-04-29T14:34:13;1.50;;;0.30;;
23250;SDS011;11794;49.730;10.088;2023-04-29T14:36:38;2.10;;;0.47;;
23250;SDS011;11794;49.730;10.088;2023-04-29T14:39:04;1.48;;;0.43;;
23250;SDS011;11794;49.730;10.088;2023-04-29T14:41:30;1.53;;;0.60;;
23250;SDS011;11794;49.730;10.088;2023-04-29T14:43:55;3.05;;;0.80;;
23250;SDS011;11794;49.730;10.088;2023-04-29T14:46:21;1.17;;;0.50;;
23250;SDS011;11794;49.730;10.088;2023-04-29T14:48:47;1.48;;;0.32;;
23250;SDS011;11794;49.730;10.088;2023-04-29T14:51:13;0.82;;;0.30;;
23250;SDS011;11794;49.730;10.088;2023-04-29T14:53:39;0.93;;;0.23;;
23250;SDS011;11794;49.730;10.088;2023-04-29T14:56:04;1.55;;;0.40;;